Time;durP1;ratioP1;P1;durP2;ratioP2;P2;SDS_P1;SDS_P2;PMS_P1;PMS_P2;Temp;Humidity;BMP_temperature;BMP_pressure;BME280_temperature;BME280_humidity;BME280_pressure;Samples;Min_cycle;Max_cycle;Signal;HPM_P1;HPM_P2
2021/08/16 00:01:12;;;;;;;5.78;5.18;;;;;;;22.43;65.23;98343.38;2623575;54;20038;-74
2021/08/16 00:03:42;;;;;;;5.25;4.75;;;;;;;22.40;65.21;98333.97;2624982;54;20086;-73
2021/08/16 00:06:11;;;;;;;5.82;4.78;;;;;;;22.36;66.03;98332.09;2624373;54;20027;-74
2021/08/16 00:08:41;;;;;;;8.57;5.60;;;;;;;22.27;65.96;98331.09;2623364;54;20026;-73
2021/08/16 00:11:10;;;;;;;6.85;4.85;;;;;;;22.29;66.05;98324.38;2624069;54;20018;-74
2021/08/16 00:13:42;;;;;;;6.63;4.95;;;;;;;22.33;66.02;98324.59;2623921;54;20038;-73
2021/08/16 00:16:12;;;;;;;7.80;5.38;;;;;;;22.22;65.87;98321.19;2623002;47;20070;-74
2021/08/16 00:18:46;;;;;;;6.25;4.93;;;;;;;22.20;66.22;98318.75;2623800;54;20031;-73
2021/08/16 00:21:15;;;;;;;7.32;4.63;;;;;;;22.15;66.25;98316.09;2623727;54;20032;-73
2021/08/16 00:23:45;;;;;;;7.97;5.10;;;;;;;22.04;66.24;98319.91;2623659;54;20044;-73
2021/08/16 00:26:15;;;;;;;7.07;5.38;;;;;;;21.90;66.35;98318.94;2623779;54;20038;-73
2021/08/16 00:28:47;;;;;;;6.68;5.32;;;;;;;21.81;66.23;98313.34;2624124;54;20026;-73
2021/08/16 00:31:17;;;;;;;7.57;4.97;;;;;;;21.77;66.11;98325.72;2624574;54;20038;-74
2021/08/16 00:33:46;;;;;;;5.68;5.18;;;;;;;21.74;66.41;98319.00;2626449;39;20441;-75
2021/08/16 00:36:16;;;;;;;6.25;4.95;;;;;;;21.71;66.62;98322.25;2624641;54;20019;-74
2021/08/16 00:38:45;;;;;;;5.25;4.70;;;;;;;21.69;66.62;98320.94;2623514;47;20027;-74
2021/08/16 00:41:16;;;;;;;7.10;5.07;;;;;;;21.67;66.91;98321.19;2624981;31;20494;-74
2021/08/16 00:43:49;;;;;;;10.23;6.00;;;;;;;21.56;67.14;98326.91;2623521;54;20051;-73
2021/08/16 00:46:19;;;;;;;10.90;5.32;;;;;;;21.51;67.21;98322.34;2623857;54;20047;-74
2021/08/16 00:48:48;;;;;;;7.88;5.45;;;;;;;21.44;67.71;98329.91;2624315;54;20071;-74
2021/08/16 00:51:18;;;;;;;6.88;5.63;;;;;;;21.36;68.08;98341.22;2625172;54;20018;-74
2021/08/16 00:53:49;;;;;;;9.20;5.95;;;;;;;21.30;67.92;98345.78;2623737;54;20026;-73
2021/08/16 00:56:19;;;;;;;9.38;5.72;;;;;;;21.27;68.46;98352.50;2624594;54;20034;-74
2021/08/16 00:58:51;;;;;;;8.27;5.22;;;;;;;21.27;68.76;98347.13;2623100;39;20466;-73
2021/08/16 01:01:20;;;;;;;9.60;5.80;;;;;;;21.27;68.79;98354.41;2620389;54;20023;-73
2021/08/16 01:03:50;;;;;;;6.20;5.60;;;;;;;21.22;68.83;98355.19;2620325;54;20026;-73
2021/08/16 01:06:20;;;;;;;7.55;5.70;;;;;;;21.23;69.15;98364.09;2620457;54;20046;-73
2021/08/16 01:08:50;;;;;;;6.97;5.32;;;;;;;21.20;68.84;98356.56;2620688;54;20574;-74
2021/08/16 01:11:20;;;;;;;7.00;5.85;;;;;;;21.15;69.05;98357.38;2621643;54;20033;-75
2021/08/16 01:13:53;;;;;;;7.78;5.88;;;;;;;21.10;69.64;98357.38;2624141;54;20027;-75
2021/08/16 01:16:23;;;;;;;8.68;6.10;;;;;;;21.11;69.52;98361.69;2624295;54;20058;-75
2021/08/16 01:18:53;;;;;;;7.43;5.85;;;;;;;21.02;69.74;98364.13;2625496;54;20022;-75
2021/08/16 01:21:23;;;;;;;7.20;6.18;;;;;;;21.02;69.92;98368.66;2627582;39;20417;-74
2021/08/16 01:23:53;;;;;;;9.43;5.95;;;;;;;21.02;69.88;98368.66;2624492;54;20054;-73
2021/08/16 01:26:22;;;;;;;8.95;6.25;;;;;;;21.01;70.47;98369.75;2623830;47;20031;-73
2021/08/16 01:28:55;;;;;;;8.07;6.22;;;;;;;21.00;70.32;98378.91;2623978;47;20030;-74
2021/08/16 01:31:24;;;;;;;7.45;6.38;;;;;;;20.93;70.66;98384.53;2625034;39;20415;-74
2021/08/16 01:33:54;;;;;;;8.77;6.43;;;;;;;20.94;70.99;98385.34;2625061;47;20042;-75
2021/08/16 01:36:23;;;;;;;8.63;6.25;;;;;;;20.93;70.90;98383.72;2624508;47;20065;-75
2021/08/16 01:38:53;;;;;;;7.28;6.38;;;;;;;20.97;70.61;98387.50;2625304;54;20023;-74
2021/08/16 01:41:22;;;;;;;7.68;6.43;;;;;;;20.89;71.12;98388.84;2625255;54;20103;-75
2021/08/16 01:43:55;;;;;;;9.93;6.50;;;;;;;20.85;71.24;98393.13;2625231;54;20034;-75
2021/08/16 01:46:26;;;;;;;9.45;6.55;;;;;;;20.84;71.52;98396.09;2624476;47;20038;-74
2021/08/16 01:48:56;;;;;;;7.57;6.50;;;;;;;20.77;71.51;98397.16;2625313;54;20022;-75
2021/08/16 01:51:25;;;;;;;9.02;6.50;;;;;;;20.77;71.99;98399.03;2625816;54;20022;-74
2021/08/16 01:53:55;;;;;;;9.05;6.35;;;;;;;20.83;71.84;98408.72;2625364;54;20044;-75
2021/08/16 01:56:25;;;;;;;7.57;6.18;;;;;;;20.89;71.94;98404.97;2625148;39;20452;-74
2021/08/16 01:58:57;;;;;;;10.23;7.45;;;;;;;20.87;71.66;98406.31;2624627;54;20037;-73
2021/08/16 02:01:26;;;;;;;9.02;6.05;;;;;;;20.91;71.29;98407.41;2624334;54;20042;-73
2021/08/16 02:03:56;;;;;;;8.82;6.22;;;;;;;20.92;71.51;98403.63;2625077;54;20031;-74
2021/08/16 02:06:26;;;;;;;8.30;6.20;;;;;;;20.93;71.56;98407.91;2624811;54;20561;-73
2021/08/16 02:08:55;;;;;;;8.30;6.00;;;;;;;20.93;71.57;98405.22;2624962;54;20038;-74
2021/08/16 02:11:26;;;;;;;12.70;6.03;;;;;;;20.90;71.60;98408.44;2623569;54;20035;-73
2021/08/16 02:13:58;;;;;;;7.57;5.20;;;;;;;20.96;71.33;98405.50;2624335;54;20023;-74
2021/08/16 02:16:31;;;;;;;11.35;6.40;;;;;;;20.95;71.07;98406.59;2625639;31;20486;-74
2021/08/16 02:19:01;;;;;;;9.60;6.40;;;;;;;20.89;71.00;98407.66;2625462;54;20019;-75
2021/08/16 02:21:30;;;;;;;8.52;6.15;;;;;;;20.91;71.25;98407.41;2624866;47;20267;-75
2021/08/16 02:24:00;;;;;;;9.55;6.07;;;;;;;20.94;70.82;98414.88;2625126;54;20038;-75
2021/08/16 02:26:29;;;;;;;7.47;5.18;;;;;;;20.97;70.66;98404.41;2625131;39;20450;-75
2021/08/16 02:29:01;;;;;;;9.80;5.70;;;;;;;21.00;70.63;98401.19;2625798;39;20513;-75
2021/08/16 02:31:31;;;;;;;9.70;5.60;;;;;;;20.93;70.04;98410.59;2625132;54;20030;-75
2021/08/16 02:34:01;;;;;;;7.88;5.97;;;;;;;20.86;70.65;98416.25;2625734;46;20042;-74
2021/08/16 02:36:30;;;;;;;7.05;5.68;;;;;;;20.84;69.86;98414.91;2624971;54;20070;-75
2021/08/16 02:39:00;;;;;;;8.27;5.35;;;;;;;20.85;69.69;98417.31;2624571;39;20520;-75
2021/08/16 02:41:30;;;;;;;8.48;5.50;;;;;;;20.76;68.89;98425.09;2624565;54;20054;-75
2021/08/16 02:44:02;;;;;;;7.25;5.18;;;;;;;20.76;69.07;98433.16;2624225;54;20066;-74
2021/08/16 02:46:32;;;;;;;7.95;4.65;;;;;;;20.72;68.17;98429.41;2624074;47;20062;-74
2021/08/16 02:49:02;;;;;;;7.88;5.15;;;;;;;20.73;68.23;98444.44;2624280;54;20082;-74
2021/08/16 02:51:32;;;;;;;6.63;4.50;;;;;;;20.66;67.69;98451.97;2624275;47;20074;-74
2021/08/16 02:54:02;;;;;;;5.95;4.30;;;;;;;20.61;66.68;98451.94;2624358;54;20082;-74
2021/08/16 02:56:31;;;;;;;6.30;4.82;;;;;;;20.56;66.98;98449.25;2625025;39;20502;-74
2021/08/16 02:59:04;;;;;;;6.95;5.03;;;;;;;20.56;67.34;98459.19;2623273;50;20030;-74
2021/08/16 03:01:33;;;;;;;7.60;5.57;;;;;;;20.56;67.39;98454.63;2624676;54;20030;-74
2021/08/16 03:04:03;;;;;;;6.97;5.07;;;;;;;20.52;67.58;98464.28;2624801;54;20038;-74
2021/08/16 03:06:33;;;;;;;10.05;4.72;;;;;;;20.49;67.06;98467.50;2624077;47;20037;-73
2021/08/16 03:09:03;;;;;;;7.70;4.55;;;;;;;20.42;66.42;98461.56;2625128;39;20419;-74
2021/08/16 03:11:32;;;;;;;6.03;4.55;;;;;;;20.37;66.58;98472.25;2623950;54;20038;-74
2021/08/16 03:14:05;;;;;;;6.22;4.88;;;;;;;20.35;65.91;98469.84;2624313;54;20023;-74
2021/08/16 03:16:34;;;;;;;8.30;4.32;;;;;;;20.36;64.59;98467.97;2624950;54;20049;-74
2021/08/16 03:19:04;;;;;;;6.43;3.78;;;;;;;20.25;63.79;98472.50;2625133;47;20657;-74
2021/08/16 03:21:33;;;;;;;7.32;4.05;;;;;;;20.18;64.13;98474.63;2626983;39;20434;-74
2021/08/16 03:24:03;;;;;;;4.63;3.20;;;;;;;20.14;63.30;98478.91;2625555;54;20031;-74
2021/08/16 03:26:33;;;;;;;9.50;3.40;;;;;;;20.16;63.36;98474.88;2625940;39;20443;-74
2021/08/16 03:29:06;;;;;;;5.50;3.25;;;;;;;20.14;62.43;98489.63;2625826;54;20027;-74
2021/08/16 03:31:35;;;;;;;7.75;3.42;;;;;;;20.06;62.11;98498.19;2625648;54;20022;-76
2021/08/16 03:34:05;;;;;;;4.88;3.10;;;;;;;20.01;62.10;98494.41;2626304;54;20561;-74
2021/08/16 03:36:35;;;;;;;5.25;3.78;;;;;;;19.94;61.40;98493.84;2626265;54;20049;-73
2021/08/16 03:39:05;;;;;;;8.07;3.20;;;;;;;19.91;61.74;98498.91;2625323;47;20030;-74
2021/08/16 03:41:35;;;;;;;5.45;3.20;;;;;;;19.88;61.20;98499.44;2625693;54;20058;-75
2021/08/16 03:44:07;;;;;;;4.97;3.33;;;;;;;19.82;61.07;98503.16;2625232;39;20487;-74
2021/08/16 03:46:37;;;;;;;4.00;3.00;;;;;;;19.80;60.94;98516.84;2622946;47;20648;-73
2021/08/16 03:49:06;;;;;;;4.90;3.15;;;;;;;19.76;60.71;98505.81;2623509;54;20033;-73
2021/08/16 03:51:36;;;;;;;5.18;3.22;;;;;;;19.76;60.63;98515.75;2624203;47;20054;-73
2021/08/16 03:54:05;;;;;;;4.95;3.20;;;;;;;19.74;61.12;98512.50;2625609;54;20063;-74
2021/08/16 03:56:35;;;;;;;6.88;3.38;;;;;;;19.68;60.96;98511.69;2624737;47;20588;-75
2021/08/16 03:59:07;;;;;;;4.45;3.15;;;;;;;19.66;61.13;98515.66;2622112;47;20075;-75
2021/08/16 04:01:37;;;;;;;5.53;3.17;;;;;;;19.60;60.71;98511.31;2623469;54;20034;-75
2021/08/16 04:04:08;;;;;;;5.53;2.80;;;;;;;19.47;60.98;98524.09;2623738;54;20133;-73
2021/08/16 04:06:38;;;;;;;3.95;3.33;;;;;;;19.47;61.13;98528.63;2623431;47;20056;-73
2021/08/16 04:09:07;;;;;;;3.95;3.13;;;;;;;19.39;61.08;98521.91;2623103;54;20027;-73
2021/08/16 04:11:37;;;;;;;4.25;2.88;;;;;;;19.32;61.68;98529.34;2623181;54;20027;-73
2021/08/16 04:14:09;;;;;;;6.82;2.90;;;;;;;19.34;61.67;98534.44;2623117;54;20104;-73
2021/08/16 04:16:39;;;;;;;6.18;3.28;;;;;;;19.25;61.40;98534.91;2622540;54;20038;-72
2021/08/16 04:19:08;;;;;;;8.98;3.75;;;;;;;19.18;61.19;98538.84;2622692;47;20648;-74
2021/08/16 04:21:38;;;;;;;6.70;3.40;;;;;;;19.21;61.17;98543.72;2625145;39;20446;-71
2021/08/16 04:24:08;;;;;;;5.25;2.90;;;;;;;19.11;60.39;98547.13;2623498;54;20030;-72
2021/08/16 04:26:37;;;;;;;6.72;2.90;;;;;;;19.09;59.42;98553.78;2624426;54;20030;-72
2021/08/16 04:29:09;;;;;;;5.00;2.38;;;;;;;18.96;58.89;98549.66;2624492;54;20113;-73
2021/08/16 04:31:39;;;;;;;4.60;2.72;;;;;;;18.98;58.66;98550.19;2624409;54;20041;-72
2021/08/16 04:34:09;;;;;;;8.07;2.90;;;;;;;18.94;58.31;98549.06;2624596;54;20042;-75
2021/08/16 04:36:38;;;;;;;7.25;2.90;;;;;;;18.94;57.90;98557.94;2624722;47;20038;-71
2021/08/16 04:39:08;;;;;;;6.15;2.90;;;;;;;18.90;57.31;98559.50;2624799;54;20026;-73
2021/08/16 04:41:38;;;;;;;7.35;2.75;;;;;;;18.89;56.73;98560.56;2625573;54;20091;-72
2021/08/16 04:44:10;;;;;;;8.00;2.78;;;;;;;18.84;56.52;98557.81;2624899;54;20031;-72
2021/08/16 04:46:39;;;;;;;6.85;2.92;;;;;;;18.90;56.13;98553.31;2624608;54;20038;-72
2021/08/16 04:49:18;;;;;;;5.05;2.65;;;;;;;18.85;55.61;98553.28;2624540;54;20078;-71
2021/08/16 04:51:48;;;;;;;4.22;2.58;;;;;;;18.80;55.83;98551.34;2624440;54;20540;-71
2021/08/16 04:54:17;;;;;;;6.13;2.80;;;;;;;18.78;56.18;98556.16;2624302;54;20668;-73
2021/08/16 04:56:47;;;;;;;6.10;2.28;;;;;;;18.81;56.24;98559.13;2624022;54;20030;-73
2021/08/16 04:59:19;;;;;;;5.90;3.00;;;;;;;18.80;55.70;98557.53;2625062;54;20034;-73
2021/08/16 05:01:50;;;;;;;7.03;2.40;;;;;;;18.76;55.26;98561.75;2623233;54;20030;-73
2021/08/16 05:04:20;;;;;;;6.47;2.85;;;;;;;18.70;55.54;98559.28;2623161;54;20034;-73
2021/08/16 05:06:50;;;;;;;5.53;2.03;;;;;;;18.67;55.44;98570.47;2623907;54;20030;-73
2021/08/16 05:09:19;;;;;;;7.97;3.08;;;;;;;18.64;55.60;98568.28;2622301;54;20023;-73
2021/08/16 05:11:49;;;;;;;6.55;2.83;;;;;;;18.54;55.38;98580.50;2622192;54;20026;-73
2021/08/16 05:14:21;;;;;;;6.38;3.03;;;;;;;18.54;56.06;98590.41;2622463;47;20530;-73
2021/08/16 05:16:51;;;;;;;8.07;2.90;;;;;;;18.51;55.64;98581.00;2624346;54;20022;-73
2021/08/16 05:19:20;;;;;;;5.28;2.33;;;;;;;18.50;56.01;98576.69;2626391;39;20513;-73
2021/08/16 05:21:50;;;;;;;5.82;2.90;;;;;;;18.49;55.74;98576.94;2625925;54;20530;-73
2021/08/16 05:24:19;;;;;;;7.75;2.92;;;;;;;18.46;55.29;98580.13;2624768;54;20018;-71
2021/08/16 05:26:49;;;;;;;8.68;2.65;;;;;;;18.39;55.37;98582.19;2621621;54;20026;-71
2021/08/16 05:29:21;;;;;;;5.70;2.53;;;;;;;18.38;55.72;98581.38;2621677;54;20113;-71
2021/08/16 05:31:50;;;;;;;7.43;3.30;;;;;;;18.36;55.34;98577.31;2624333;54;20042;-71
2021/08/16 05:34:20;;;;;;;7.38;2.70;;;;;;;18.31;55.00;98584.22;2621334;54;20078;-72
2021/08/16 05:36:50;;;;;;;9.90;2.70;;;;;;;18.28;54.90;98586.56;2623135;54;20038;-71
2021/08/16 05:39:20;;;;;;;8.10;3.00;;;;;;;18.24;54.92;98588.13;2622803;54;20046;-71
2021/08/16 05:41:49;;;;;;;7.60;2.47;;;;;;;18.27;54.90;98591.13;2623479;54;20042;-71
2021/08/16 05:44:21;;;;;;;7.82;3.05;;;;;;;18.35;55.00;98597.09;2625980;54;20045;-72
2021/08/16 05:46:51;;;;;;;9.70;2.88;;;;;;;18.32;54.78;98593.84;2625373;54;20082;-72
2021/08/16 05:49:20;;;;;;;6.93;2.92;;;;;;;18.30;54.93;98592.50;2625626;54;20030;-71
2021/08/16 05:51:50;;;;;;;8.45;2.80;;;;;;;18.21;54.96;98597.47;2625594;54;20065;-72
2021/08/16 05:54:19;;;;;;;8.77;3.10;;;;;;;18.27;54.83;98603.69;2624971;47;20589;-73
2021/08/16 05:56:49;;;;;;;13.02;3.50;;;;;;;18.25;54.88;98603.94;2628103;39;20447;-73
2021/08/16 05:59:21;;;;;;;8.02;2.40;;;;;;;18.22;54.87;98598.28;2626167;54;20026;-73
2021/08/16 06:01:51;;;;;;;8.50;2.65;;;;;;;18.20;54.96;98609.22;2623641;54;20074;-72
2021/08/16 06:04:20;;;;;;;7.90;2.70;;;;;;;18.26;55.03;98600.22;2622113;54;20033;-73
2021/08/16 06:06:50;;;;;;;7.93;2.65;;;;;;;18.28;54.69;98605.31;2621083;47;20130;-72
2021/08/16 06:09:19;;;;;;;9.75;3.00;;;;;;;18.36;54.64;98614.78;2623156;54;20046;-73
2021/08/16 06:11:49;;;;;;;7.95;2.75;;;;;;;18.39;54.80;98612.41;2624386;54;20034;-73
2021/08/16 06:14:21;;;;;;;8.25;2.97;;;;;;;18.53;54.76;98623.56;2623552;54;20023;-74
2021/08/16 06:16:51;;;;;;;6.82;2.78;;;;;;;18.72;54.78;98618.75;2624808;54;20050;-73
2021/08/16 06:19:20;;;;;;;8.95;2.70;;;;;;;19.00;54.29;98623.88;2623966;54;20038;-73
2021/08/16 06:21:50;;;;;;;7.03;2.50;;;;;;;19.10;54.01;98615.13;2624949;54;20070;-72
2021/08/16 06:24:19;;;;;;;7.93;2.50;;;;;;;19.30;53.61;98623.38;2624369;54;20054;-73
2021/08/16 06:26:49;;;;;;;8.43;2.83;;;;;;;19.38;53.39;98610.59;2627131;39;20446;-73
2021/08/16 06:29:21;;;;;;;6.38;2.70;;;;;;;19.50;52.76;98608.56;2625440;54;20034;-73
2021/08/16 06:31:50;;;;;;;8.27;2.63;;;;;;;19.49;52.51;98609.63;2621822;54;20053;-72
2021/08/16 06:34:22;;;;;;;5.50;2.53;;;;;;;19.48;52.34;98605.34;2622028;54;20042;-73
2021/08/16 06:36:54;;;;;;;10.77;3.30;;;;;;;19.59;52.34;98607.00;2624506;54;20117;-73
2021/08/16 06:39:28;;;;;;;6.43;2.95;;;;;;;19.65;52.16;98598.00;2624919;39;20133;-73
2021/08/16 06:41:58;;;;;;;10.52;3.03;;;;;;;19.69;52.21;98607.13;2625631;54;20081;-73
2021/08/16 06:44:33;;;;;;;9.17;3.13;;;;;;;19.77;52.14;98603.19;2624690;54;20033;-73
2021/08/16 06:47:02;;;;;;;6.95;2.90;;;;;;;19.84;52.07;98606.47;2626380;39;20510;-73
2021/08/16 06:49:32;;;;;;;7.88;3.20;;;;;;;19.89;52.41;98606.47;2624819;54;20030;-72
2021/08/16 06:52:02;;;;;;;6.97;3.10;;;;;;;20.00;52.27;98610.03;2624503;54;20022;-73
2021/08/16 06:54:31;;;;;;;5.55;2.58;;;;;;;20.15;51.90;98603.97;2624855;54;20124;-72
2021/08/16 06:57:03;;;;;;;9.18;3.35;;;;;;;20.20;51.69;98612.84;2624336;54;20629;-73
2021/08/16 06:59:37;;;;;;;5.75;2.28;;;;;;;20.18;51.53;98603.44;2623269;54;20050;-73
2021/08/16 07:02:07;;;;;;;8.60;2.88;;;;;;;20.14;51.18;98605.84;2623814;54;20077;-73
2021/08/16 07:04:38;;;;;;;8.02;2.97;;;;;;;20.12;51.79;98604.47;2624430;39;20392;-71
2021/08/16 07:07:08;;;;;;;9.90;3.08;;;;;;;20.12;51.82;98609.84;2621628;54;20089;-73
2021/08/16 07:09:37;;;;;;;7.57;2.50;;;;;;;19.93;51.50;98618.31;2623350;54;20038;-73
2021/08/16 07:12:08;;;;;;;7.43;2.58;;;;;;;19.83;52.33;98620.09;2623349;54;20081;-73
2021/08/16 07:14:40;;;;;;;8.23;2.70;;;;;;;19.87;51.99;98626.56;2624659;54;20050;-73
2021/08/16 07:17:09;;;;;;;8.60;2.92;;;;;;;19.82;52.76;98618.50;2624266;54;20088;-77
2021/08/16 07:19:39;;;;;;;10.40;2.63;;;;;;;19.60;52.52;98630.09;2625099;54;20030;-73
2021/08/16 07:22:08;;;;;;;7.82;3.20;;;;;;;19.53;52.81;98622.25;2625589;54;20031;-73
2021/08/16 07:24:38;;;;;;;6.18;2.78;;;;;;;19.55;53.11;98622.81;2625274;54;20030;-72
2021/08/16 07:27:08;;;;;;;8.10;2.55;;;;;;;19.55;53.46;98627.34;2624219;54;20030;-72
2021/08/16 07:29:40;;;;;;;7.65;2.50;;;;;;;19.67;52.89;98636.06;2625015;54;20022;-73
2021/08/16 07:32:09;;;;;;;6.03;2.53;;;;;;;19.88;52.85;98641.59;2625312;54;20038;-74
2021/08/16 07:34:39;;;;;;;9.18;2.65;;;;;;;19.96;52.38;98644.63;2625448;54;20022;-72
2021/08/16 07:37:11;;;;;;;8.68;2.35;;;;;;;19.95;52.08;98639.50;2624255;47;20031;-72
2021/08/16 07:39:40;;;;;;;6.85;2.38;;;;;;;20.03;51.83;98647.06;2624029;54;20038;-74
2021/08/16 07:42:10;;;;;;;5.03;1.98;;;;;;;20.00;51.53;98644.91;2623413;54;20151;-72
2021/08/16 07:44:42;;;;;;;6.90;2.30;;;;;;;20.00;52.00;98645.75;2623522;54;20026;-73
2021/08/16 07:47:12;;;;;;;7.82;2.60;;;;;;;20.08;52.08;98646.31;2623308;54;20055;-72
2021/08/16 07:49:41;;;;;;;4.13;2.15;;;;;;;20.27;51.75;98651.00;2625391;39;20424;-73
2021/08/16 07:52:11;;;;;;;6.20;2.45;;;;;;;20.42;52.14;98644.91;2623260;54;20042;-72
2021/08/16 07:54:41;;;;;;;11.00;2.28;;;;;;;20.62;51.57;98652.31;2623241;47;20042;-71
2021/08/16 07:57:10;;;;;;;6.68;2.63;;;;;;;20.59;51.58;98652.81;2622799;54;20167;-71
2021/08/16 07:59:42;;;;;;;9.80;2.90;;;;;;;20.53;51.95;98652.00;2623107;54;20547;-71
2021/08/16 08:02:12;;;;;;;5.72;2.33;;;;;;;20.69;51.43;98662.78;2623792;54;20082;-70
2021/08/16 08:04:42;;;;;;;7.50;2.60;;;;;;;21.00;50.91;98658.34;2623739;54;20026;-71
2021/08/16 08:07:11;;;;;;;4.68;2.28;;;;;;;21.13;50.54;98657.84;2623234;54;20042;-71
2021/08/16 08:09:41;;;;;;;8.50;2.63;;;;;;;21.23;50.38;98652.50;2623906;54;20046;-71
2021/08/16 08:12:11;;;;;;;7.78;2.17;;;;;;;21.16;50.07;98660.00;2624033;47;20026;-71
2021/08/16 08:14:43;;;;;;;5.75;2.58;;;;;;;21.11;50.18;98668.06;2623474;54;20031;-70
2021/08/16 08:17:12;;;;;;;5.63;1.88;;;;;;;20.96;49.97;98662.63;2624064;54;20026;-71
2021/08/16 08:19:42;;;;;;;5.78;2.25;;;;;;;20.77;49.73;98665.78;2624918;54;20085;-71
2021/08/16 08:22:12;;;;;;;6.00;2.17;;;;;;;20.81;50.24;98673.31;2623748;47;20039;-70
2021/08/16 08:24:41;;;;;;;4.43;1.90;;;;;;;20.86;49.96;98670.66;2623590;47;20019;-70
2021/08/16 08:27:12;;;;;;;6.10;2.38;;;;;;;20.84;49.74;98670.91;2621371;51;20030;-71
2021/08/16 08:29:45;;;;;;;3.13;1.90;;;;;;;20.94;50.48;98680.91;2622213;54;20038;-71
2021/08/16 08:32:15;;;;;;;9.35;2.33;;;;;;;21.00;49.74;98675.28;2623689;39;20446;-70
2021/08/16 08:34:45;;;;;;;4.45;1.88;;;;;;;20.85;50.27;98685.97;2624235;54;20039;-71
2021/08/16 08:37:15;;;;;;;6.25;2.50;;;;;;;21.02;49.83;98686.59;2623554;54;20058;-71
2021/08/16 08:39:45;;;;;;;4.80;2.05;;;;;;;21.17;49.67;98682.31;2623443;47;20062;-71
2021/08/16 08:42:15;;;;;;;5.32;1.88;;;;;;;21.28;49.44;98676.72;2623937;54;20034;-70
2021/08/16 08:44:47;;;;;;;6.82;2.60;;;;;;;21.55;49.49;98675.69;2623445;47;20039;-71
2021/08/16 08:47:17;;;;;;;8.77;2.22;;;;;;;21.69;49.18;98678.69;2623264;54;20038;-73
2021/08/16 08:49:46;;;;;;;4.15;1.92;;;;;;;21.71;49.13;98673.84;2623749;46;20077;-74
2021/08/16 08:52:16;;;;;;;3.70;1.40;;;;;;;21.62;49.30;98670.88;2624173;54;20026;-71
2021/08/16 08:54:46;;;;;;;3.50;1.90;;;;;;;21.69;48.53;98666.03;2623716;54;20033;-71
2021/08/16 08:57:39;;;;;;;4.93;2.00;;;;;;;21.92;47.97;98669.25;2622842;54;20110;-72
2021/08/16 09:00:16;;;;;;;5.32;2.10;;;;;;;21.98;48.29;98662.81;2622758;47;20046;-72
2021/08/16 09:03:01;;;;;;;4.93;2.03;;;;;;;22.20;48.19;98663.34;2623965;39;20439;-71
2021/08/16 09:05:32;;;;;;;11.88;2.15;;;;;;;22.21;47.60;98667.69;2622142;54;20121;-70
2021/08/16 09:08:04;;;;;;;;;;;;;;;22.23;48.33;98664.69;2621554;54;20613;-70
2021/08/16 09:10:34;;;;;;;6.22;1.98;;;;;;;22.25;47.93;98666.06;2624559;39;20362;-71
2021/08/16 09:13:03;;;;;;;6.85;2.58;;;;;;;22.36;47.86;98657.94;2624184;54;20042;-71
2021/08/16 09:15:35;;;;;;;7.85;2.58;;;;;;;22.20;47.12;98660.66;2624230;54;20604;-71
2021/08/16 09:18:06;;;;;;;4.55;1.88;;;;;;;22.04;46.91;98659.03;2623942;54;20628;-71
2021/08/16 09:20:36;;;;;;;6.75;2.45;;;;;;;21.84;47.21;98659.03;2623225;54;20038;-71
2021/08/16 09:23:13;;;;;;;5.80;2.33;;;;;;;21.71;47.11;98671.94;2622996;54;20106;-69
2021/08/16 09:25:53;;;;;;;5.45;2.35;;;;;;;21.90;47.94;98660.66;2624840;54;20051;-71
2021/08/16 09:28:29;;;;;;;10.63;4.05;;;;;;;22.19;47.87;98655.56;2624031;54;20549;-71
2021/08/16 09:31:12;;;;;;;6.05;2.10;;;;;;;22.40;46.97;98659.81;2624132;54;20055;-71
2021/08/16 09:33:55;;;;;;;3.20;1.83;;;;;;;22.20;47.14;98651.78;2623283;54;20026;-71
2021/08/16 09:36:36;;;;;;;5.55;2.10;;;;;;;22.14;47.59;98664.44;2623633;54;20038;-70
2021/08/16 09:39:07;;;;;;;7.78;2.88;;;;;;;22.16;48.12;98650.72;2623441;54;20035;-71
2021/08/16 09:41:36;;;;;;;4.28;2.20;;;;;;;22.28;46.92;98669.28;2623578;54;20031;-71
2021/08/16 09:44:11;;;;;;;7.68;2.25;;;;;;;22.27;46.78;98641.53;2624229;54;20058;-71
2021/08/16 09:46:44;;;;;;;6.88;2.33;;;;;;;22.26;46.73;98650.69;2623551;54;20023;-70
2021/08/16 09:49:14;;;;;;;4.45;2.45;;;;;;;22.10;46.75;98643.69;2624102;54;20040;-71
2021/08/16 09:51:43;;;;;;;5.90;2.00;;;;;;;21.98;47.22;98634.00;2623609;54;20026;-70
2021/08/16 09:54:13;;;;;;;7.47;2.67;;;;;;;22.02;46.86;98642.38;2623457;51;20023;-70
2021/08/16 09:56:45;;;;;;;5.53;2.53;;;;;;;21.95;47.62;98645.31;2623235;54;20607;-69
2021/08/16 09:59:14;;;;;;;9.80;2.97;;;;;;;21.99;47.61;98643.69;2623829;54;20042;-69
2021/08/16 10:01:47;;;;;;;5.07;2.20;;;;;;;21.94;47.13;98646.41;2621163;47;20146;-69
2021/08/16 10:04:17;;;;;;;5.57;2.13;;;;;;;21.96;47.19;98656.88;2620253;47;20045;-70
2021/08/16 10:06:47;;;;;;;6.85;2.42;;;;;;;21.87;47.47;98651.25;2619001;47;20030;-72
2021/08/16 10:09:20;;;;;;;8.13;2.22;;;;;;;21.69;47.64;98652.59;2622799;39;20447;-70
2021/08/16 10:11:51;;;;;;;7.20;2.30;;;;;;;21.58;48.31;98664.41;2621984;54;20027;-70
2021/08/16 10:14:25;;;;;;;9.05;2.25;;;;;;;21.44;48.88;98656.06;2620675;54;20046;-70
2021/08/16 10:16:59;;;;;;;7.10;2.75;;;;;;;21.27;49.23;98655.47;2620504;54;20023;-70
2021/08/16 10:19:33;;;;;;;6.47;2.58;;;;;;;21.24;49.62;98666.75;2621347;54;20034;-70
2021/08/16 10:22:04;;;;;;;7.03;2.58;;;;;;;21.27;49.65;98652.78;2622808;54;20050;-69
2021/08/16 10:24:33;;;;;;;8.52;2.78;;;;;;;21.31;49.46;98647.66;2623050;47;20035;-69
2021/08/16 10:27:07;;;;;;;7.28;2.55;;;;;;;21.28;49.44;98646.34;2624022;54;20030;-70
2021/08/16 10:29:38;;;;;;;7.20;2.63;;;;;;;21.17;49.60;98656.25;2623531;47;20026;-70
2021/08/16 10:32:21;;;;;;;5.10;2.30;;;;;;;21.12;50.04;98656.25;2623583;54;20041;-71
2021/08/16 10:34:52;;;;;;;5.17;2.27;;;;;;;21.21;50.51;98659.22;2622629;54;20034;-70
2021/08/16 10:37:22;;;;;;;8.68;2.58;;;;;;;21.22;50.88;98656.25;2622247;54;20287;-71
2021/08/16 10:39:51;;;;;;;5.00;2.28;;;;;;;21.27;51.08;98642.84;2622345;47;20038;-71
2021/08/16 10:42:33;;;;;;;5.95;2.58;;;;;;;21.44;50.58;98652.59;2623356;54;20074;-71
2021/08/16 10:45:03;;;;;;;12.20;2.92;;;;;;;21.72;50.43;98652.06;2622943;47;20027;-70
2021/08/16 10:47:37;;;;;;;6.63;2.60;;;;;;;21.86;49.33;98651.53;2621928;47;20026;-70
2021/08/16 10:50:09;;;;;;;6.05;2.97;;;;;;;21.95;48.95;98641.81;2624943;39;20419;-70
2021/08/16 10:52:41;;;;;;;9.02;2.47;;;;;;;22.05;49.25;98633.75;2623405;54;20657;-70
2021/08/16 10:55:15;;;;;;;7.15;2.30;;;;;;;22.21;48.26;98638.06;2621258;54;20041;-70
2021/08/16 10:57:47;;;;;;;5.65;2.42;;;;;;;22.13;48.49;98635.94;2620048;54;20077;-70
2021/08/16 11:00:18;;;;;;;5.65;2.42;;;;;;;21.98;48.65;98638.59;2620390;54;20034;-71
2021/08/16 11:02:55;;;;;;;9.75;2.47;;;;;;;21.95;48.72;98639.94;2620503;54;20651;-70
2021/08/16 11:05:33;;;;;;;9.65;2.70;;;;;;;21.76;49.16;98650.44;2620431;54;20557;-70
2021/08/16 11:08:04;;;;;;;9.23;2.50;;;;;;;21.60;49.50;98638.06;2620950;54;20045;-70
2021/08/16 11:10:42;;;;;;;4.97;2.53;;;;;;;21.69;50.13;98639.16;2623821;39;20474;-71
2021/08/16 11:13:17;;;;;;;4.28;2.15;;;;;;;21.65;49.47;98638.06;2620580;47;20037;-69
2021/08/16 11:15:49;;;;;;;4.95;2.05;;;;;;;21.73;49.88;98636.72;2622956;47;20022;-70
2021/08/16 11:18:23;;;;;;;7.03;2.42;;;;;;;21.63;49.61;98634.81;2623109;47;20046;-70
2021/08/16 11:20:59;;;;;;;6.35;2.40;;;;;;;21.67;50.12;98633.22;2623827;54;20042;-69
2021/08/16 11:23:29;;;;;;;6.75;3.08;;;;;;;21.72;50.13;98638.63;2621858;54;20090;-69
2021/08/16 11:26:01;;;;;;;7.45;2.65;;;;;;;21.75;49.87;98626.50;2619561;47;20103;-69
2021/08/16 11:28:32;;;;;;;5.38;2.40;;;;;;;22.08;49.52;98635.06;2619529;54;20114;-69
2021/08/16 11:31:05;;;;;;;4.45;2.67;;;;;;;22.30;48.47;98630.22;2620645;54;20030;-70
2021/08/16 11:33:38;;;;;;;4.80;2.03;;;;;;;22.29;48.15;98625.09;2623248;47;20034;-70
2021/08/16 11:36:13;;;;;;;11.38;2.65;;;;;;;22.38;48.03;98616.22;2623176;54;20114;-70
2021/08/16 11:38:44;;;;;;;7.50;2.17;;;;;;;22.30;47.79;98624.84;2622445;54;20026;-69
2021/08/16 11:41:15;;;;;;;5.35;2.40;;;;;;;22.42;47.82;98622.66;2623938;54;20062;-69
2021/08/16 11:44:16;;;;;;;4.00;2.30;;;;;;;22.29;46.93;98619.72;2622826;54;20022;-69
2021/08/16 11:46:46;;;;;;;5.45;2.42;;;;;;;22.19;47.79;98618.66;2622723;54;20042;-69
2021/08/16 11:49:19;;;;;;;5.72;2.53;;;;;;;22.34;46.93;98615.13;2622708;54;20573;-70
2021/08/16 11:51:49;;;;;;;5.57;2.38;;;;;;;22.32;46.28;98619.97;2621793;54;20041;-69